sensor_id;sensor_type;location;lat;lon;timestamp;P1;durP1;ratioP1;P2;durP2;ratioP2
16039;SDS011;8124;48.634;8.120;2022-08-26T00:00:10;46.53;;;41.72;;
16039;SDS011;8124;48.634;8.120;2022-08-26T00:05:14;46.40;;;41.55;;
16039;SDS011;8124;48.634;8.120;2022-08-26T00:10:19;47.03;;;42.05;;
16039;SDS011;8124;48.634;8.120;2022-08-26T00:15:26;46.72;;;42.03;;
16039;SDS011;8124;48.634;8.120;2022-08-26T00:20:31;46.35;;;41.60;;
16039;SDS011;8124;48.634;8.120;2022-08-26T00:25:37;46.30;;;41.53;;
16039;SDS011;8124;48.634;8.120;2022-08-26T00:30:42;45.85;;;41.22;;
16039;SDS011;8124;48.634;8.120;2022-08-26T00:35:51;46.50;;;41.80;;
16039;SDS011;8124;48.634;8.120;2022-08-26T00:40:57;46.55;;;41.85;;
16039;SDS011;8124;48.634;8.120;2022-08-26T00:46:03;47.28;;;42.35;;
16039;SDS011;8124;48.634;8.120;2022-08-26T00:51:11;46.38;;;41.67;;
16039;SDS011;8124;48.634;8.120;2022-08-26T00:56:20;46.40;;;41.60;;
16039;SDS011;8124;48.634;8.120;2022-08-26T01:01:27;45.90;;;41.20;;
16039;SDS011;8124;48.634;8.120;2022-08-26T01:06:31;46.00;;;41.30;;
16039;SDS011;8124;48.634;8.120;2022-08-26T01:11:36;46.05;;;41.35;;
16039;SDS011;8124;48.634;8.120;2022-08-26T01:16:40;45.60;;;40.90;;
16039;SDS011;8124;48.634;8.120;2022-08-26T01:21:45;46.45;;;41.65;;
16039;SDS011;8124;48.634;8.120;2022-08-26T01:26:55;47.03;;;42.22;;
16039;SDS011;8124;48.634;8.120;2022-08-26T01:32:02;47.22;;;42.22;;
16039;SDS011;8124;48.634;8.120;2022-08-26T01:37:09;46.13;;;41.42;;
16039;SDS011;8124;48.634;8.120;2022-08-26T01:42:19;45.88;;;41.17;;
16039;SDS011;8124;48.634;8.120;2022-08-26T01:47:24;46.63;;;41.83;;
16039;SDS011;8124;48.634;8.120;2022-08-26T01:52:30;47.60;;;42.70;;
16039;SDS011;8124;48.634;8.120;2022-08-26T01:57:38;45.55;;;40.95;;
16039;SDS011;8124;48.634;8.120;2022-08-26T02:02:44;47.25;;;42.50;;
16039;SDS011;8124;48.634;8.120;2022-08-26T02:07:49;46.03;;;41.33;;
16039;SDS011;8124;48.634;8.120;2022-08-26T02:12:53;46.47;;;41.78;;
16039;SDS011;8124;48.634;8.120;2022-08-26T02:17:57;46.80;;;42.05;;
16039;SDS011;8124;48.634;8.120;2022-08-26T02:23:01;46.45;;;41.80;;
16039;SDS011;8124;48.634;8.120;2022-08-26T02:28:05;46.95;;;42.08;;
16039;SDS011;8124;48.634;8.120;2022-08-26T02:33:08;46.47;;;41.72;;
16039;SDS011;8124;48.634;8.120;2022-08-26T02:38:11;46.45;;;41.45;;
16039;SDS011;8124;48.634;8.120;2022-08-26T02:43:17;46.65;;;41.85;;
16039;SDS011;8124;48.634;8.120;2022-08-26T02:48:32;45.88;;;41.15;;
16039;SDS011;8124;48.634;8.120;2022-08-26T02:53:36;46.83;;;41.92;;
16039;SDS011;8124;48.634;8.120;2022-08-26T02:58:40;46.65;;;41.85;;
16039;SDS011;8124;48.634;8.120;2022-08-26T03:03:43;46.13;;;41.33;;
16039;SDS011;8124;48.634;8.120;2022-08-26T03:08:49;45.88;;;41.17;;
16039;SDS011;8124;48.634;8.120;2022-08-26T03:13:54;45.88;;;41.17;;
16039;SDS011;8124;48.634;8.120;2022-08-26T03:18:57;46.53;;;41.83;;
16039;SDS011;8124;48.634;8.120;2022-08-26T03:24:01;46.55;;;41.60;;
16039;SDS011;8124;48.634;8.120;2022-08-26T03:29:05;46.50;;;41.80;;
16039;SDS011;8124;48.634;8.120;2022-08-26T03:34:28;46.40;;;41.58;;
16039;SDS011;8124;48.634;8.120;2022-08-26T03:39:32;46.50;;;41.70;;
16039;SDS011;8124;48.634;8.120;2022-08-26T03:44:36;45.90;;;41.22;;
16039;SDS011;8124;48.634;8.120;2022-08-26T03:49:42;48.15;;;41.45;;
16039;SDS011;8124;48.634;8.120;2022-08-26T03:54:45;45.65;;;40.92;;
16039;SDS011;8124;48.634;8.120;2022-08-26T03:59:49;45.83;;;41.13;;
16039;SDS011;8124;48.634;8.120;2022-08-26T04:04:53;45.75;;;41.05;;
16039;SDS011;8124;48.634;8.120;2022-08-26T04:09:57;45.47;;;40.78;;
16039;SDS011;8124;48.634;8.120;2022-08-26T04:15:01;45.85;;;41.05;;
16039;SDS011;8124;48.634;8.120;2022-08-26T04:20:06;45.28;;;40.67;;
16039;SDS011;8124;48.634;8.120;2022-08-26T04:25:10;45.88;;;41.17;;
16039;SDS011;8124;48.634;8.120;2022-08-26T04:30:15;45.90;;;41.22;;
16039;SDS011;8124;48.634;8.120;2022-08-26T04:35:18;45.72;;;41.00;;
16039;SDS011;8124;48.634;8.120;2022-08-26T04:40:26;46.65;;;41.83;;
16039;SDS011;8124;48.634;8.120;2022-08-26T04:45:30;45.85;;;41.15;;
16039;SDS011;8124;48.634;8.120;2022-08-26T04:50:36;46.10;;;41.30;;
16039;SDS011;8124;48.634;8.120;2022-08-26T04:55:44;45.53;;;40.83;;
16039;SDS011;8124;48.634;8.120;2022-08-26T05:00:51;46.42;;;41.72;;
16039;SDS011;8124;48.634;8.120;2022-08-26T05:05:56;45.47;;;40.75;;
16039;SDS011;8124;48.634;8.120;2022-08-26T05:11:02;45.92;;;41.13;;
16039;SDS011;8124;48.634;8.120;2022-08-26T05:16:11;45.92;;;41.20;;
16039;SDS011;8124;48.634;8.120;2022-08-26T05:21:16;45.75;;;41.10;;
16039;SDS011;8124;48.634;8.120;2022-08-26T05:26:21;46.10;;;41.40;;
16039;SDS011;8124;48.634;8.120;2022-08-26T05:31:28;46.05;;;41.30;;
16039;SDS011;8124;48.634;8.120;2022-08-26T05:36:33;46.25;;;41.55;;
16039;SDS011;8124;48.634;8.120;2022-08-26T05:41:38;46.10;;;41.40;;
16039;SDS011;8124;48.634;8.120;2022-08-26T05:46:46;46.20;;;41.50;;
16039;SDS011;8124;48.634;8.120;2022-08-26T05:51:51;46.05;;;41.35;;
16039;SDS011;8124;48.634;8.120;2022-08-26T05:56:54;46.63;;;41.78;;
16039;SDS011;8124;48.634;8.120;2022-08-26T06:02:00;46.38;;;41.42;;
16039;SDS011;8124;48.634;8.120;2022-08-26T06:07:03;46.83;;;41.92;;
16039;SDS011;8124;48.634;8.120;2022-08-26T06:12:10;46.72;;;41.88;;
16039;SDS011;8124;48.634;8.120;2022-08-26T06:17:16;47.65;;;42.65;;
16039;SDS011;8124;48.634;8.120;2022-08-26T06:22:20;47.47;;;42.58;;
16039;SDS011;8124;48.634;8.120;2022-08-26T06:27:40;46.95;;;41.83;;
16039;SDS011;8124;48.634;8.120;2022-08-26T06:32:45;48.60;;;43.40;;
16039;SDS011;8124;48.634;8.120;2022-08-26T06:37:49;47.63;;;42.63;;
16039;SDS011;8124;48.634;8.120;2022-08-26T06:42:52;47.35;;;42.42;;
16039;SDS011;8124;48.634;8.120;2022-08-26T06:47:57;47.30;;;42.15;;
16039;SDS011;8124;48.634;8.120;2022-08-26T06:53:00;47.45;;;41.88;;
16039;SDS011;8124;48.634;8.120;2022-08-26T06:58:02;47.38;;;42.42;;
16039;SDS011;8124;48.634;8.120;2022-08-26T07:03:07;46.75;;;41.97;;
16039;SDS011;8124;48.634;8.120;2022-08-26T07:08:11;48.35;;;42.50;;
16039;SDS011;8124;48.634;8.120;2022-08-26T07:13:14;47.28;;;42.33;;
16039;SDS011;8124;48.634;8.120;2022-08-26T07:18:32;46.97;;;42.03;;
16039;SDS011;8124;48.634;8.120;2022-08-26T07:23:37;47.10;;;42.33;;
16039;SDS011;8124;48.634;8.120;2022-08-26T07:28:41;46.80;;;41.80;;
16039;SDS011;8124;48.634;8.120;2022-08-26T07:33:46;47.05;;;42.17;;
16039;SDS011;8124;48.634;8.120;2022-08-26T07:38:51;46.85;;;42.05;;
16039;SDS011;8124;48.634;8.120;2022-08-26T07:43:54;46.08;;;41.17;;
16039;SDS011;8124;48.634;8.120;2022-08-26T07:48:58;46.67;;;41.88;;
16039;SDS011;8124;48.634;8.120;2022-08-26T07:54:02;46.88;;;42.00;;
16039;SDS011;8124;48.634;8.120;2022-08-26T07:59:05;45.88;;;41.17;;
16039;SDS011;8124;48.634;8.120;2022-08-26T08:04:17;47.15;;;42.22;;
16039;SDS011;8124;48.634;8.120;2022-08-26T08:09:26;46.60;;;41.80;;
16039;SDS011;8124;48.634;8.120;2022-08-26T08:14:29;47.00;;;41.70;;
16039;SDS011;8124;48.634;8.120;2022-08-26T08:19:34;47.58;;;42.70;;
16039;SDS011;8124;48.634;8.120;2022-08-26T08:24:39;46.75;;;41.85;;
16039;SDS011;8124;48.634;8.120;2022-08-26T08:29:42;47.97;;;42.85;;
16039;SDS011;8124;48.634;8.120;2022-08-26T08:34:48;47.47;;;42.60;;
16039;SDS011;8124;48.634;8.120;2022-08-26T08:39:51;47.65;;;42.45;;
16039;SDS011;8124;48.634;8.120;2022-08-26T08:44:54;46.90;;;42.10;;
16039;SDS011;8124;48.634;8.120;2022-08-26T08:50:05;47.30;;;42.47;;
16039;SDS011;8124;48.634;8.120;2022-08-26T08:55:13;47.30;;;42.50;;
16039;SDS011;8124;48.634;8.120;2022-08-26T09:00:19;47.30;;;42.47;;
16039;SDS011;8124;48.634;8.120;2022-08-26T09:05:33;47.70;;;42.80;;
16039;SDS011;8124;48.634;8.120;2022-08-26T09:10:46;47.22;;;42.42;;
16039;SDS011;8124;48.634;8.120;2022-08-26T09:15:56;47.97;;;43.03;;
16039;SDS011;8124;48.634;8.120;2022-08-26T09:21:09;48.13;;;43.17;;
16039;SDS011;8124;48.634;8.120;2022-08-26T09:26:15;48.20;;;43.20;;
16039;SDS011;8124;48.634;8.120;2022-08-26T09:31:21;48.63;;;43.60;;
16039;SDS011;8124;48.634;8.120;2022-08-26T09:36:33;47.78;;;42.97;;
16039;SDS011;8124;48.634;8.120;2022-08-26T09:41:41;48.33;;;43.22;;
16039;SDS011;8124;48.634;8.120;2022-08-26T09:46:51;48.17;;;43.28;;
16039;SDS011;8124;48.634;8.120;2022-08-26T09:52:08;47.47;;;42.38;;
16039;SDS011;8124;48.634;8.120;2022-08-26T09:57:16;48.60;;;43.50;;
16039;SDS011;8124;48.634;8.120;2022-08-26T10:02:27;49.58;;;43.03;;
16039;SDS011;8124;48.634;8.120;2022-08-26T10:07:40;49.35;;;44.03;;
16039;SDS011;8124;48.634;8.120;2022-08-26T10:12:48;48.35;;;43.25;;
16039;SDS011;8124;48.634;8.120;2022-08-26T10:17:59;48.20;;;43.30;;
16039;SDS011;8124;48.634;8.120;2022-08-26T10:23:08;47.60;;;42.80;;
16039;SDS011;8124;48.634;8.120;2022-08-26T10:28:16;48.58;;;43.58;;
16039;SDS011;8124;48.634;8.120;2022-08-26T10:33:23;48.00;;;43.17;;
16039;SDS011;8124;48.634;8.120;2022-08-26T10:38:31;48.22;;;43.15;;
16039;SDS011;8124;48.634;8.120;2022-08-26T10:43:38;48.03;;;43.10;;
16039;SDS011;8124;48.634;8.120;2022-08-26T10:48:45;48.25;;;43.25;;
16039;SDS011;8124;48.634;8.120;2022-08-26T10:53:55;47.90;;;43.08;;
16039;SDS011;8124;48.634;8.120;2022-08-26T10:59:02;48.20;;;43.28;;
16039;SDS011;8124;48.634;8.120;2022-08-26T11:04:15;48.60;;;43.70;;
16039;SDS011;8124;48.634;8.120;2022-08-26T11:14:50;51.25;;;43.90;;
16039;SDS011;8124;48.634;8.120;2022-08-26T11:19:59;48.10;;;43.30;;
16039;SDS011;8124;48.634;8.120;2022-08-26T11:25:11;48.60;;;43.60;;
16039;SDS011;8124;48.634;8.120;2022-08-26T11:35:48;48.17;;;43.15;;
16039;SDS011;8124;48.634;8.120;2022-08-26T11:41:05;48.40;;;43.50;;
16039;SDS011;8124;48.634;8.120;2022-08-26T11:46:12;49.22;;;44.22;;
16039;SDS011;8124;48.634;8.120;2022-08-26T11:51:25;48.60;;;43.28;;
16039;SDS011;8124;48.634;8.120;2022-08-26T11:56:31;48.03;;;43.25;;
16039;SDS011;8124;48.634;8.120;2022-08-26T12:01:36;48.53;;;43.63;;
16039;SDS011;8124;48.634;8.120;2022-08-26T12:06:44;48.45;;;43.65;;
16039;SDS011;8124;48.634;8.120;2022-08-26T12:11:52;49.15;;;44.15;;
16039;SDS011;8124;48.634;8.120;2022-08-26T12:17:13;48.35;;;43.45;;
16039;SDS011;8124;48.634;8.120;2022-08-26T12:22:21;48.63;;;43.72;;
16039;SDS011;8124;48.634;8.120;2022-08-26T12:27:29;48.53;;;43.63;;
16039;SDS011;8124;48.634;8.120;2022-08-26T12:32:34;48.60;;;43.50;;
16039;SDS011;8124;48.634;8.120;2022-08-26T12:37:59;48.30;;;43.30;;
16039;SDS011;8124;48.634;8.120;2022-08-26T12:43:04;47.72;;;43.03;;
16039;SDS011;8124;48.634;8.120;2022-08-26T12:48:09;49.25;;;44.15;;
16039;SDS011;8124;48.634;8.120;2022-08-26T12:53:15;48.45;;;43.65;;
16039;SDS011;8124;48.634;8.120;2022-08-26T12:58:27;48.08;;;43.30;;
16039;SDS011;8124;48.634;8.120;2022-08-26T13:03:39;48.40;;;43.65;;
16039;SDS011;8124;48.634;8.120;2022-08-26T13:08:45;48.83;;;43.90;;
16039;SDS011;8124;48.634;8.120;2022-08-26T13:13:50;48.58;;;43.58;;
16039;SDS011;8124;48.634;8.120;2022-08-26T13:18:57;47.78;;;42.63;;
16039;SDS011;8124;48.634;8.120;2022-08-26T13:24:02;47.97;;;42.70;;
16039;SDS011;8124;48.634;8.120;2022-08-26T13:29:09;47.47;;;42.67;;
16039;SDS011;8124;48.634;8.120;2022-08-26T13:34:13;52.05;;;43.45;;
16039;SDS011;8124;48.634;8.120;2022-08-26T13:39:19;50.95;;;44.08;;
16039;SDS011;8124;48.634;8.120;2022-08-26T13:44:24;49.30;;;44.10;;
16039;SDS011;8124;48.634;8.120;2022-08-26T13:49:27;51.63;;;44.72;;
16039;SDS011;8124;48.634;8.120;2022-08-26T13:54:30;47.35;;;42.55;;
16039;SDS011;8124;48.634;8.120;2022-08-26T13:59:34;47.55;;;42.58;;
16039;SDS011;8124;48.634;8.120;2022-08-26T14:04:38;47.10;;;42.30;;
16039;SDS011;8124;48.634;8.120;2022-08-26T14:09:41;47.75;;;42.95;;
16039;SDS011;8124;48.634;8.120;2022-08-26T14:14:46;47.10;;;42.30;;
16039;SDS011;8124;48.634;8.120;2022-08-26T14:19:49;47.63;;;42.83;;
16039;SDS011;8124;48.634;8.120;2022-08-26T14:24:52;47.60;;;42.80;;
16039;SDS011;8124;48.634;8.120;2022-08-26T14:29:58;47.00;;;42.10;;
16039;SDS011;8124;48.634;8.120;2022-08-26T14:35:01;47.78;;;42.67;;
16039;SDS011;8124;48.634;8.120;2022-08-26T14:40:05;46.78;;;41.95;;
16039;SDS011;8124;48.634;8.120;2022-08-26T14:45:10;47.30;;;42.40;;
16039;SDS011;8124;48.634;8.120;2022-08-26T14:50:17;47.63;;;42.72;;
16039;SDS011;8124;48.634;8.120;2022-08-26T14:55:22;48.78;;;43.90;;
16039;SDS011;8124;48.634;8.120;2022-08-26T15:00:27;49.90;;;44.80;;
16039;SDS011;8124;48.634;8.120;2022-08-26T15:05:31;48.55;;;43.55;;
16039;SDS011;8124;48.634;8.120;2022-08-26T15:10:35;48.95;;;43.75;;
16039;SDS011;8124;48.634;8.120;2022-08-26T15:15:40;48.28;;;43.33;;
16039;SDS011;8124;48.634;8.120;2022-08-26T15:20:43;52.67;;;47.20;;
16039;SDS011;8124;48.634;8.120;2022-08-26T15:25:46;51.47;;;45.70;;
16039;SDS011;8124;48.634;8.120;2022-08-26T15:30:50;52.13;;;46.85;;
16039;SDS011;8124;48.634;8.120;2022-08-26T15:35:53;51.58;;;46.00;;
16039;SDS011;8124;48.634;8.120;2022-08-26T15:40:56;51.03;;;45.92;;
16039;SDS011;8124;48.634;8.120;2022-08-26T15:46:04;51.17;;;45.80;;
16039;SDS011;8124;48.634;8.120;2022-08-26T15:51:17;50.55;;;45.53;;
16039;SDS011;8124;48.634;8.120;2022-08-26T15:56:23;49.70;;;44.80;;
16039;SDS011;8124;48.634;8.120;2022-08-26T16:01:28;51.00;;;45.90;;
16039;SDS011;8124;48.634;8.120;2022-08-26T16:06:33;51.58;;;46.45;;
16039;SDS011;8124;48.634;8.120;2022-08-26T16:11:37;51.72;;;46.53;;
16039;SDS011;8124;48.634;8.120;2022-08-26T16:16:42;52.47;;;46.90;;
16039;SDS011;8124;48.634;8.120;2022-08-26T16:21:45;52.78;;;47.17;;
16039;SDS011;8124;48.634;8.120;2022-08-26T16:26:48;52.33;;;46.97;;
16039;SDS011;8124;48.634;8.120;2022-08-26T16:31:52;51.97;;;46.40;;
16039;SDS011;8124;48.634;8.120;2022-08-26T16:36:55;52.00;;;46.70;;
16039;SDS011;8124;48.634;8.120;2022-08-26T16:41:58;52.55;;;47.22;;
16039;SDS011;8124;48.634;8.120;2022-08-26T16:47:03;50.80;;;45.50;;
16039;SDS011;8124;48.634;8.120;2022-08-26T16:52:06;51.22;;;46.03;;
16039;SDS011;8124;48.634;8.120;2022-08-26T16:57:11;51.10;;;45.97;;
16039;SDS011;8124;48.634;8.120;2022-08-26T17:02:16;51.63;;;46.22;;
16039;SDS011;8124;48.634;8.120;2022-08-26T17:07:19;52.33;;;46.95;;
16039;SDS011;8124;48.634;8.120;2022-08-26T17:12:21;50.13;;;45.10;;
16039;SDS011;8124;48.634;8.120;2022-08-26T17:17:26;52.08;;;46.58;;
16039;SDS011;8124;48.634;8.120;2022-08-26T17:22:29;51.53;;;46.20;;
16039;SDS011;8124;48.634;8.120;2022-08-26T17:27:35;50.75;;;45.55;;
16039;SDS011;8124;48.634;8.120;2022-08-26T17:32:40;51.60;;;46.30;;
16039;SDS011;8124;48.634;8.120;2022-08-26T17:37:44;51.95;;;46.58;;
16039;SDS011;8124;48.634;8.120;2022-08-26T17:42:47;52.70;;;46.75;;
16039;SDS011;8124;48.634;8.120;2022-08-26T17:47:54;51.25;;;46.08;;
16039;SDS011;8124;48.634;8.120;2022-08-26T17:52:57;50.97;;;45.78;;
16039;SDS011;8124;48.634;8.120;2022-08-26T17:58:07;50.83;;;45.53;;
16039;SDS011;8124;48.634;8.120;2022-08-26T18:03:16;50.92;;;45.80;;
16039;SDS011;8124;48.634;8.120;2022-08-26T18:08:23;49.88;;;44.80;;
16039;SDS011;8124;48.634;8.120;2022-08-26T18:13:26;50.53;;;45.10;;
16039;SDS011;8124;48.634;8.120;2022-08-26T18:18:30;50.30;;;45.20;;
16039;SDS011;8124;48.634;8.120;2022-08-26T18:23:33;52.55;;;47.03;;
16039;SDS011;8124;48.634;8.120;2022-08-26T18:28:37;49.65;;;44.75;;
16039;SDS011;8124;48.634;8.120;2022-08-26T18:33:41;50.70;;;45.42;;
16039;SDS011;8124;48.634;8.120;2022-08-26T18:38:44;49.30;;;44.40;;
16039;SDS011;8124;48.634;8.120;2022-08-26T18:43:51;53.33;;;48.00;;
16039;SDS011;8124;48.634;8.120;2022-08-26T18:48:56;50.90;;;45.63;;
16039;SDS011;8124;48.634;8.120;2022-08-26T18:53:59;51.10;;;45.90;;
16039;SDS011;8124;48.634;8.120;2022-08-26T18:59:04;49.42;;;44.53;;
16039;SDS011;8124;48.634;8.120;2022-08-26T19:04:09;48.97;;;44.03;;
16039;SDS011;8124;48.634;8.120;2022-08-26T19:09:16;50.67;;;45.42;;
16039;SDS011;8124;48.634;8.120;2022-08-26T19:14:21;51.60;;;46.30;;
16039;SDS011;8124;48.634;8.120;2022-08-26T19:19:25;50.63;;;45.58;;
16039;SDS011;8124;48.634;8.120;2022-08-26T19:24:28;50.53;;;45.53;;
16039;SDS011;8124;48.634;8.120;2022-08-26T19:29:32;49.50;;;44.40;;
16039;SDS011;8124;48.634;8.120;2022-08-26T19:34:38;50.05;;;45.05;;
16039;SDS011;8124;48.634;8.120;2022-08-26T19:39:41;49.90;;;44.90;;
16039;SDS011;8124;48.634;8.120;2022-08-26T19:44:44;50.35;;;45.28;;
16039;SDS011;8124;48.634;8.120;2022-08-26T19:50:07;50.17;;;44.97;;
16039;SDS011;8124;48.634;8.120;2022-08-26T19:55:13;50.17;;;45.08;;
16039;SDS011;8124;48.634;8.120;2022-08-26T20:00:19;51.50;;;46.08;;
16039;SDS011;8124;48.634;8.120;2022-08-26T20:05:26;50.65;;;45.45;;
16039;SDS011;8124;48.634;8.120;2022-08-26T20:10:29;49.75;;;44.65;;
16039;SDS011;8124;48.634;8.120;2022-08-26T20:15:32;49.80;;;44.63;;
16039;SDS011;8124;48.634;8.120;2022-08-26T20:20:36;48.50;;;43.60;;
16039;SDS011;8124;48.634;8.120;2022-08-26T20:25:57;50.35;;;45.05;;
16039;SDS011;8124;48.634;8.120;2022-08-26T20:31:01;49.58;;;44.55;;
16039;SDS011;8124;48.634;8.120;2022-08-26T20:36:06;49.08;;;43.97;;
16039;SDS011;8124;48.634;8.120;2022-08-26T20:41:09;48.92;;;44.00;;
16039;SDS011;8124;48.634;8.120;2022-08-26T20:46:13;49.10;;;44.00;;
16039;SDS011;8124;48.634;8.120;2022-08-26T20:51:22;49.63;;;44.50;;
16039;SDS011;8124;48.634;8.120;2022-08-26T20:56:25;50.03;;;44.85;;
16039;SDS011;8124;48.634;8.120;2022-08-26T21:01:29;49.53;;;44.22;;
16039;SDS011;8124;48.634;8.120;2022-08-26T21:06:36;49.35;;;44.28;;
16039;SDS011;8124;48.634;8.120;2022-08-26T21:11:42;49.55;;;44.45;;
16039;SDS011;8124;48.634;8.120;2022-08-26T21:16:46;48.60;;;43.50;;
16039;SDS011;8124;48.634;8.120;2022-08-26T21:21:50;47.65;;;42.78;;
16039;SDS011;8124;48.634;8.120;2022-08-26T21:26:53;48.13;;;43.15;;
16039;SDS011;8124;48.634;8.120;2022-08-26T21:31:56;49.35;;;43.95;;
16039;SDS011;8124;48.634;8.120;2022-08-26T21:37:00;49.50;;;44.45;;
16039;SDS011;8124;48.634;8.120;2022-08-26T21:42:09;50.42;;;45.15;;
16039;SDS011;8124;48.634;8.120;2022-08-26T21:47:12;49.70;;;44.70;;
16039;SDS011;8124;48.634;8.120;2022-08-26T21:52:17;48.92;;;43.92;;
16039;SDS011;8124;48.634;8.120;2022-08-26T21:57:21;49.22;;;43.97;;
16039;SDS011;8124;48.634;8.120;2022-08-26T22:02:24;48.47;;;43.47;;
16039;SDS011;8124;48.634;8.120;2022-08-26T22:07:28;49.08;;;44.00;;
16039;SDS011;8124;48.634;8.120;2022-08-26T22:12:31;48.50;;;43.55;;
16039;SDS011;8124;48.634;8.120;2022-08-26T22:17:34;49.28;;;44.30;;
16039;SDS011;8124;48.634;8.120;2022-08-26T22:22:39;51.03;;;45.83;;
16039;SDS011;8124;48.634;8.120;2022-08-26T22:27:42;48.80;;;43.60;;
16039;SDS011;8124;48.634;8.120;2022-08-26T22:32:45;50.17;;;45.08;;
16039;SDS011;8124;48.634;8.120;2022-08-26T22:37:50;49.97;;;44.72;;
16039;SDS011;8124;48.634;8.120;2022-08-26T22:42:57;49.58;;;44.35;;
16039;SDS011;8124;48.634;8.120;2022-08-26T22:48:00;49.22;;;44.22;;
16039;SDS011;8124;48.634;8.120;2022-08-26T22:53:06;49.47;;;44.38;;
16039;SDS011;8124;48.634;8.120;2022-08-26T22:58:09;50.80;;;45.53;;
16039;SDS011;8124;48.634;8.120;2022-08-26T23:03:14;50.45;;;45.10;;
16039;SDS011;8124;48.634;8.120;2022-08-26T23:08:19;50.10;;;44.80;;
16039;SDS011;8124;48.634;8.120;2022-08-26T23:13:22;48.08;;;43.17;;
16039;SDS011;8124;48.634;8.120;2022-08-26T23:18:25;48.78;;;43.70;;
16039;SDS011;8124;48.634;8.120;2022-08-26T23:23:29;49.50;;;44.30;;
16039;SDS011;8124;48.634;8.120;2022-08-26T23:28:33;49.83;;;44.63;;
16039;SDS011;8124;48.634;8.120;2022-08-26T23:33:38;50.15;;;44.95;;
16039;SDS011;8124;48.634;8.120;2022-08-26T23:39:00;47.97;;;42.97;;
16039;SDS011;8124;48.634;8.120;2022-08-26T23:44:03;51.40;;;45.95;;
16039;SDS011;8124;48.634;8.120;2022-08-26T23:49:06;51.20;;;45.63;;
16039;SDS011;8124;48.634;8.120;2022-08-26T23:54:11;51.55;;;46.10;;
16039;SDS011;8124;48.634;8.120;2022-08-26T23:59:14;51.38;;;45.75;;
